sensor_id;sensor_type;location;lat;lon;timestamp;temperature;humidity
74484;SHT31;62942;52.462;10.846;2024-01-15T00:00:39;1;96.1
74484;SHT31;62942;52.462;10.846;2024-01-15T00:01:49;1;96.1
74484;SHT31;62942;52.462;10.846;2024-01-15T00:02:59;1;96.3
74484;SHT31;62942;52.462;10.846;2024-01-15T00:04:09;1;96.3
74484;SHT31;62942;52.462;10.846;2024-01-15T00:05:20;1;96.3
74484;SHT31;62942;52.462;10.846;2024-01-15T00:06:29;1;96.4
74484;SHT31;62942;52.462;10.846;2024-01-15T00:07:29;0.9;96.5
74484;SHT31;62942;52.462;10.846;2024-01-15T00:08:39;0.9;96.6
74484;SHT31;62942;52.462;10.846;2024-01-15T00:09:49;0.9;96.7
74484;SHT31;62942;52.462;10.846;2024-01-15T00:10:59;1;96.8
74484;SHT31;62942;52.462;10.846;2024-01-15T00:12:09;0.9;96.8
74484;SHT31;62942;52.462;10.846;2024-01-15T00:13:19;1;96.8
74484;SHT31;62942;52.462;10.846;2024-01-15T00:14:29;1;96.8
74484;SHT31;62942;52.462;10.846;2024-01-15T00:15:39;1;96.7
74484;SHT31;62942;52.462;10.846;2024-01-15T00:16:39;1;96.8
74484;SHT31;62942;52.462;10.846;2024-01-15T00:17:49;1;96.8
74484;SHT31;62942;52.462;10.846;2024-01-15T00:18:59;1;96.7
74484;SHT31;62942;52.462;10.846;2024-01-15T00:19:59;1;96.6
74484;SHT31;62942;52.462;10.846;2024-01-15T00:21:09;1;96.5
74484;SHT31;62942;52.462;10.846;2024-01-15T00:22:19;1;96.5
74484;SHT31;62942;52.462;10.846;2024-01-15T00:23:19;1.1;96.5
74484;SHT31;62942;52.462;10.846;2024-01-15T00:24:29;1.1;96.4
74484;SHT31;62942;52.462;10.846;2024-01-15T00:25:29;1.1;96.4
74484;SHT31;62942;52.462;10.846;2024-01-15T00:26:39;1;96.4
74484;SHT31;62942;52.462;10.846;2024-01-15T00:27:39;1.1;96.3
74484;SHT31;62942;52.462;10.846;2024-01-15T00:28:49;1.1;96.3
74484;SHT31;62942;52.462;10.846;2024-01-15T00:29:49;1.1;96.3
74484;SHT31;62942;52.462;10.846;2024-01-15T00:30:59;1.1;96.3
74484;SHT31;62942;52.462;10.846;2024-01-15T00:31:59;1.1;96.4
74484;SHT31;62942;52.462;10.846;2024-01-15T00:33:09;1.1;96.4
74484;SHT31;62942;52.462;10.846;2024-01-15T00:34:09;1.1;96.3
74484;SHT31;62942;52.462;10.846;2024-01-15T00:35:19;1.1;96.3
74484;SHT31;62942;52.462;10.846;2024-01-15T00:36:29;1.1;96.3
74484;SHT31;62942;52.462;10.846;2024-01-15T00:37:39;1.1;96.3
74484;SHT31;62942;52.462;10.846;2024-01-15T00:38:49;1.1;96.2
74484;SHT31;62942;52.462;10.846;2024-01-15T00:39:59;1.1;96.1
74484;SHT31;62942;52.462;10.846;2024-01-15T00:40:59;1.1;96
74484;SHT31;62942;52.462;10.846;2024-01-15T00:42:09;1.2;95.9
74484;SHT31;62942;52.462;10.846;2024-01-15T00:43:09;1.2;95.8
74484;SHT31;62942;52.462;10.846;2024-01-15T00:44:19;1.2;95.7
74484;SHT31;62942;52.462;10.846;2024-01-15T00:45:19;1.2;95.7
74484;SHT31;62942;52.462;10.846;2024-01-15T00:46:29;1.2;95.6
74484;SHT31;62942;52.462;10.846;2024-01-15T00:47:39;1.2;95.4
74484;SHT31;62942;52.462;10.846;2024-01-15T00:48:39;1.2;95.3
74484;SHT31;62942;52.462;10.846;2024-01-15T00:49:49;1.2;95.1
74484;SHT31;62942;52.462;10.846;2024-01-15T00:50:59;1.3;94.7
74484;SHT31;62942;52.462;10.846;2024-01-15T00:52:09;1.3;94.6
74484;SHT31;62942;52.462;10.846;2024-01-15T00:53:19;1.3;94.4
74484;SHT31;62942;52.462;10.846;2024-01-15T00:54:19;1.3;94.4
74484;SHT31;62942;52.462;10.846;2024-01-15T00:55:29;1.3;94.3
74484;SHT31;62942;52.462;10.846;2024-01-15T00:56:29;1.2;94.5
74484;SHT31;62942;52.462;10.846;2024-01-15T00:57:39;1.2;94.5
74484;SHT31;62942;52.462;10.846;2024-01-15T00:58:49;1.2;94.5
74484;SHT31;62942;52.462;10.846;2024-01-15T00:59:59;1.1;94.4
74484;SHT31;62942;52.462;10.846;2024-01-15T01:00:59;1.1;94.6
74484;SHT31;62942;52.462;10.846;2024-01-15T01:02:09;1;94.6
74484;SHT31;62942;52.462;10.846;2024-01-15T01:03:19;1;94.8
74484;SHT31;62942;52.462;10.846;2024-01-15T01:04:19;1;94.7
74484;SHT31;62942;52.462;10.846;2024-01-15T01:05:29;1;94.7
74484;SHT31;62942;52.462;10.846;2024-01-15T01:06:29;1;94.6
74484;SHT31;62942;52.462;10.846;2024-01-15T01:07:39;1;94.6
74484;SHT31;62942;52.462;10.846;2024-01-15T01:08:49;1;94.6
74484;SHT31;62942;52.462;10.846;2024-01-15T01:09:49;0.9;94.7
74484;SHT31;62942;52.462;10.846;2024-01-15T01:10:59;0.9;94.5
74484;SHT31;62942;52.462;10.846;2024-01-15T01:11:59;0.9;94.5
74484;SHT31;62942;52.462;10.846;2024-01-15T01:13:09;0.9;94.4
74484;SHT31;62942;52.462;10.846;2024-01-15T01:14:09;0.9;94.2
74484;SHT31;62942;52.462;10.846;2024-01-15T01:15:19;0.9;94.1
74484;SHT31;62942;52.462;10.846;2024-01-15T01:16:19;0.9;93.9
74484;SHT31;62942;52.462;10.846;2024-01-15T01:17:19;0.9;93.9
74484;SHT31;62942;52.462;10.846;2024-01-15T01:18:29;0.9;93.8
74484;SHT31;62942;52.462;10.846;2024-01-15T01:19:39;1;93.8
74484;SHT31;62942;52.462;10.846;2024-01-15T01:20:49;1;93.7
74484;SHT31;62942;52.462;10.846;2024-01-15T01:22:00;1;93.7
74484;SHT31;62942;52.462;10.846;2024-01-15T01:23:09;1;93.6
74484;SHT31;62942;52.462;10.846;2024-01-15T01:24:09;1;93.6
74484;SHT31;62942;52.462;10.846;2024-01-15T01:25:09;1;93.5
74484;SHT31;62942;52.462;10.846;2024-01-15T01:26:09;1;93.4
74484;SHT31;62942;52.462;10.846;2024-01-15T01:27:19;1;93.4
74484;SHT31;62942;52.462;10.846;2024-01-15T01:28:19;1.1;93.4
74484;SHT31;62942;52.462;10.846;2024-01-15T01:29:19;1.1;93.3
74484;SHT31;62942;52.462;10.846;2024-01-15T01:30:29;1.1;93.5
74484;SHT31;62942;52.462;10.846;2024-01-15T01:31:42;1.1;93.6
74484;SHT31;62942;52.462;10.846;2024-01-15T01:32:39;1.1;93.4
74484;SHT31;62942;52.462;10.846;2024-01-15T01:33:49;1.1;93.4
74484;SHT31;62942;52.462;10.846;2024-01-15T01:34:59;1.1;93.4
74484;SHT31;62942;52.462;10.846;2024-01-15T01:36:09;1.1;93.2
74484;SHT31;62942;52.462;10.846;2024-01-15T01:37:19;1.1;93.2
74484;SHT31;62942;52.462;10.846;2024-01-15T01:38:29;1.1;93.4
74484;SHT31;62942;52.462;10.846;2024-01-15T01:39:40;1.2;93.3
74484;SHT31;62942;52.462;10.846;2024-01-15T01:40:49;1.1;93.3
74484;SHT31;62942;52.462;10.846;2024-01-15T01:41:49;1.2;93.1
74484;SHT31;62942;52.462;10.846;2024-01-15T01:42:49;1.1;93
74484;SHT31;62942;52.462;10.846;2024-01-15T01:43:59;1.2;93.1
74484;SHT31;62942;52.462;10.846;2024-01-15T01:45:09;1.2;92.7
74484;SHT31;62942;52.462;10.846;2024-01-15T01:46:19;1.2;92.4
74484;SHT31;62942;52.462;10.846;2024-01-15T01:47:29;1.2;92.4
74484;SHT31;62942;52.462;10.846;2024-01-15T01:48:29;1.2;92.3
74484;SHT31;62942;52.462;10.846;2024-01-15T01:49:39;1.2;92.2
74484;SHT31;62942;52.462;10.846;2024-01-15T01:50:49;1.3;92.5
74484;SHT31;62942;52.462;10.846;2024-01-15T01:52:00;1.3;92.5
74484;SHT31;62942;52.462;10.846;2024-01-15T01:53:09;1.2;92.2
74484;SHT31;62942;52.462;10.846;2024-01-15T01:54:09;1.2;92.2
74484;SHT31;62942;52.462;10.846;2024-01-15T01:55:19;1.2;92.1
74484;SHT31;62942;52.462;10.846;2024-01-15T01:56:19;1.3;92.1
74484;SHT31;62942;52.462;10.846;2024-01-15T01:57:29;1.2;92
74484;SHT31;62942;52.462;10.846;2024-01-15T01:58:29;1.2;92
74484;SHT31;62942;52.462;10.846;2024-01-15T01:59:39;1.2;91.9
74484;SHT31;62942;52.462;10.846;2024-01-15T02:00:49;1.2;92.1
74484;SHT31;62942;52.462;10.846;2024-01-15T02:01:59;1.2;92.1
74484;SHT31;62942;52.462;10.846;2024-01-15T02:02:59;1.2;92.2
74484;SHT31;62942;52.462;10.846;2024-01-15T02:03:59;1.2;92.2
74484;SHT31;62942;52.462;10.846;2024-01-15T02:04:59;1.2;92.3
74484;SHT31;62942;52.462;10.846;2024-01-15T02:06:09;1.2;92.2
74484;SHT31;62942;52.462;10.846;2024-01-15T02:07:09;1.2;92.2
74484;SHT31;62942;52.462;10.846;2024-01-15T02:08:19;1.2;92.2
74484;SHT31;62942;52.462;10.846;2024-01-15T02:09:19;1.2;92.2
74484;SHT31;62942;52.462;10.846;2024-01-15T02:10:29;1.1;92.1
74484;SHT31;62942;52.462;10.846;2024-01-15T02:11:29;1.1;91.8
74484;SHT31;62942;52.462;10.846;2024-01-15T02:12:39;1.1;91.8
74484;SHT31;62942;52.462;10.846;2024-01-15T02:13:39;1.2;91.7
74484;SHT31;62942;52.462;10.846;2024-01-15T02:14:50;1.2;91.7
74484;SHT31;62942;52.462;10.846;2024-01-15T02:15:59;1.2;91.7
74484;SHT31;62942;52.462;10.846;2024-01-15T02:17:09;1.2;91.7
74484;SHT31;62942;52.462;10.846;2024-01-15T02:18:19;1.2;91.6
74484;SHT31;62942;52.462;10.846;2024-01-15T02:19:29;1.2;91.4
74484;SHT31;62942;52.462;10.846;2024-01-15T02:20:39;1.2;91.2
74484;SHT31;62942;52.462;10.846;2024-01-15T02:21:49;1.3;91.3
74484;SHT31;62942;52.462;10.846;2024-01-15T02:22:49;1.2;91.3
74484;SHT31;62942;52.462;10.846;2024-01-15T02:23:59;1.2;91.3
74484;SHT31;62942;52.462;10.846;2024-01-15T02:25:09;1.3;91.2
74484;SHT31;62942;52.462;10.846;2024-01-15T02:26:09;1.3;91.2
74484;SHT31;62942;52.462;10.846;2024-01-15T02:27:19;1.3;91.3
74484;SHT31;62942;52.462;10.846;2024-01-15T02:28:29;1.3;90.9
74484;SHT31;62942;52.462;10.846;2024-01-15T02:29:39;1.3;90.8
74484;SHT31;62942;52.462;10.846;2024-01-15T02:30:49;1.3;90.9
74484;SHT31;62942;52.462;10.846;2024-01-15T02:31:59;1.3;91
74484;SHT31;62942;52.462;10.846;2024-01-15T02:33:09;1.3;90.8
74484;SHT31;62942;52.462;10.846;2024-01-15T02:34:09;1.3;90.9
74484;SHT31;62942;52.462;10.846;2024-01-15T02:35:19;1.3;90.9
74484;SHT31;62942;52.462;10.846;2024-01-15T02:36:29;1.3;90.8
74484;SHT31;62942;52.462;10.846;2024-01-15T02:37:39;1.3;91
74484;SHT31;62942;52.462;10.846;2024-01-15T02:38:49;1.2;91
74484;SHT31;62942;52.462;10.846;2024-01-15T02:39:59;1.2;90.9
74484;SHT31;62942;52.462;10.846;2024-01-15T02:41:09;1.3;90.9
74484;SHT31;62942;52.462;10.846;2024-01-15T02:42:09;1.3;90.8
74484;SHT31;62942;52.462;10.846;2024-01-15T02:43:09;1.3;90.8
74484;SHT31;62942;52.462;10.846;2024-01-15T02:44:19;1.3;90.9
74484;SHT31;62942;52.462;10.846;2024-01-15T02:45:29;1.3;90.8
74484;SHT31;62942;52.462;10.846;2024-01-15T02:46:39;1.3;90.8
74484;SHT31;62942;52.462;10.846;2024-01-15T02:47:49;1.3;90.7
74484;SHT31;62942;52.462;10.846;2024-01-15T02:48:59;1.4;90.6
74484;SHT31;62942;52.462;10.846;2024-01-15T02:50:09;1.4;90.4
74484;SHT31;62942;52.462;10.846;2024-01-15T02:51:09;1.4;90.5
74484;SHT31;62942;52.462;10.846;2024-01-15T02:52:19;1.4;90.6
74484;SHT31;62942;52.462;10.846;2024-01-15T02:53:29;1.4;90.5
74484;SHT31;62942;52.462;10.846;2024-01-15T02:54:39;1.4;90.3
74484;SHT31;62942;52.462;10.846;2024-01-15T02:55:39;1.4;90.4
74484;SHT31;62942;52.462;10.846;2024-01-15T02:56:49;1.4;90.5
74484;SHT31;62942;52.462;10.846;2024-01-15T02:57:49;1.4;90.1
74484;SHT31;62942;52.462;10.846;2024-01-15T02:58:59;1.4;90
74484;SHT31;62942;52.462;10.846;2024-01-15T02:59:59;1.5;89.9
74484;SHT31;62942;52.462;10.846;2024-01-15T03:00:59;1.5;90
74484;SHT31;62942;52.462;10.846;2024-01-15T03:01:59;1.5;89.9
74484;SHT31;62942;52.462;10.846;2024-01-15T03:03:09;1.5;90
74484;SHT31;62942;52.462;10.846;2024-01-15T03:04:19;1.5;90
74484;SHT31;62942;52.462;10.846;2024-01-15T03:05:19;1.5;90
74484;SHT31;62942;52.462;10.846;2024-01-15T03:06:29;1.5;90
74484;SHT31;62942;52.462;10.846;2024-01-15T03:07:29;1.5;89.9
74484;SHT31;62942;52.462;10.846;2024-01-15T03:08:39;1.5;89.9
74484;SHT31;62942;52.462;10.846;2024-01-15T03:09:39;1.6;89.9
74484;SHT31;62942;52.462;10.846;2024-01-15T03:10:49;1.5;89.9
74484;SHT31;62942;52.462;10.846;2024-01-15T03:11:59;1.5;89.6
74484;SHT31;62942;52.462;10.846;2024-01-15T03:12:59;1.6;89.7
74484;SHT31;62942;52.462;10.846;2024-01-15T03:14:09;1.6;89.9
74484;SHT31;62942;52.462;10.846;2024-01-15T03:15:19;1.6;89.8
74484;SHT31;62942;52.462;10.846;2024-01-15T03:16:29;1.6;89.6
74484;SHT31;62942;52.462;10.846;2024-01-15T03:17:40;1.6;89.5
74484;SHT31;62942;52.462;10.846;2024-01-15T03:18:49;1.6;89.6
74484;SHT31;62942;52.462;10.846;2024-01-15T03:19:59;1.6;89.7
74484;SHT31;62942;52.462;10.846;2024-01-15T03:21:09;1.6;90
74484;SHT31;62942;52.462;10.846;2024-01-15T03:22:19;1.6;90.7
74484;SHT31;62942;52.462;10.846;2024-01-15T03:23:19;1.5;91.1
74484;SHT31;62942;52.462;10.846;2024-01-15T03:24:29;1.5;91.5
74484;SHT31;62942;52.462;10.846;2024-01-15T03:25:29;1.4;91.8
74484;SHT31;62942;52.462;10.846;2024-01-15T03:26:29;1.4;91.8
74484;SHT31;62942;52.462;10.846;2024-01-15T03:27:39;1.4;92.3
74484;SHT31;62942;52.462;10.846;2024-01-15T03:28:39;1.4;92.5
74484;SHT31;62942;52.462;10.846;2024-01-15T03:29:49;1.3;92.4
74484;SHT31;62942;52.462;10.846;2024-01-15T03:30:49;1.3;92.9
74484;SHT31;62942;52.462;10.846;2024-01-15T03:31:59;1.3;93
74484;SHT31;62942;52.462;10.846;2024-01-15T03:33:09;1.3;93.1
74484;SHT31;62942;52.462;10.846;2024-01-15T03:34:19;1.3;93.1
74484;SHT31;62942;52.462;10.846;2024-01-15T03:35:19;1.3;93.1
74484;SHT31;62942;52.462;10.846;2024-01-15T03:36:19;1.3;93.1
74484;SHT31;62942;52.462;10.846;2024-01-15T03:37:29;1.3;93
74484;SHT31;62942;52.462;10.846;2024-01-15T03:38:40;1.3;92.9
74484;SHT31;62942;52.462;10.846;2024-01-15T03:39:39;1.3;92.8
74484;SHT31;62942;52.462;10.846;2024-01-15T03:40:49;1.3;92.8
74484;SHT31;62942;52.462;10.846;2024-01-15T03:41:59;1.3;92.7
74484;SHT31;62942;52.462;10.846;2024-01-15T03:43:09;1.4;92.4
74484;SHT31;62942;52.462;10.846;2024-01-15T03:44:19;1.4;92.4
74484;SHT31;62942;52.462;10.846;2024-01-15T03:45:29;1.4;92.3
74484;SHT31;62942;52.462;10.846;2024-01-15T03:46:39;1.4;92.1
74484;SHT31;62942;52.462;10.846;2024-01-15T03:47:49;1.4;92.2
74484;SHT31;62942;52.462;10.846;2024-01-15T03:48:59;1.4;92.1
74484;SHT31;62942;52.462;10.846;2024-01-15T03:50:09;1.4;92
74484;SHT31;62942;52.462;10.846;2024-01-15T03:51:09;1.5;91.9
74484;SHT31;62942;52.462;10.846;2024-01-15T03:52:09;1.4;91.8
74484;SHT31;62942;52.462;10.846;2024-01-15T03:53:19;1.5;91.7
74484;SHT31;62942;52.462;10.846;2024-01-15T03:54:19;1.5;91.6
74484;SHT31;62942;52.462;10.846;2024-01-15T03:55:29;1.5;91.7
74484;SHT31;62942;52.462;10.846;2024-01-15T03:56:29;1.5;91.8
74484;SHT31;62942;52.462;10.846;2024-01-15T03:57:39;1.5;91.5
74484;SHT31;62942;52.462;10.846;2024-01-15T03:58:39;1.5;91.5
74484;SHT31;62942;52.462;10.846;2024-01-15T03:59:49;1.5;91.4
74484;SHT31;62942;52.462;10.846;2024-01-15T04:00:59;1.5;91.4
74484;SHT31;62942;52.462;10.846;2024-01-15T04:01:59;1.5;91.4
74484;SHT31;62942;52.462;10.846;2024-01-15T04:02:59;1.5;91.3
74484;SHT31;62942;52.462;10.846;2024-01-15T04:04:09;1.5;91.4
74484;SHT31;62942;52.462;10.846;2024-01-15T04:05:19;1.5;91.6
74484;SHT31;62942;52.462;10.846;2024-01-15T04:06:29;1.5;91.4
74484;SHT31;62942;52.462;10.846;2024-01-15T04:07:29;1.5;91.3
74484;SHT31;62942;52.462;10.846;2024-01-15T04:08:29;1.6;91.3
74484;SHT31;62942;52.462;10.846;2024-01-15T04:09:39;1.5;91.5
74484;SHT31;62942;52.462;10.846;2024-01-15T04:10:49;1.6;91.1
74484;SHT31;62942;52.462;10.846;2024-01-15T04:11:59;1.6;91.1
74484;SHT31;62942;52.462;10.846;2024-01-15T04:13:09;1.6;90.9
74484;SHT31;62942;52.462;10.846;2024-01-15T04:14:19;1.6;90.8
74484;SHT31;62942;52.462;10.846;2024-01-15T04:15:29;1.6;90.7
74484;SHT31;62942;52.462;10.846;2024-01-15T04:16:29;1.6;90.8
74484;SHT31;62942;52.462;10.846;2024-01-15T04:17:29;1.6;90.8
74484;SHT31;62942;52.462;10.846;2024-01-15T04:18:39;1.6;90.8
74484;SHT31;62942;52.462;10.846;2024-01-15T04:19:39;1.6;90.7
74484;SHT31;62942;52.462;10.846;2024-01-15T04:20:49;1.6;90.4
74484;SHT31;62942;52.462;10.846;2024-01-15T04:21:49;1.6;90.2
74484;SHT31;62942;52.462;10.846;2024-01-15T04:22:49;1.6;90.1
74484;SHT31;62942;52.462;10.846;2024-01-15T04:23:49;1.7;90.2
74484;SHT31;62942;52.462;10.846;2024-01-15T04:24:59;1.6;90
74484;SHT31;62942;52.462;10.846;2024-01-15T04:26:09;1.7;90.1
74484;SHT31;62942;52.462;10.846;2024-01-15T04:27:19;1.6;90.2
74484;SHT31;62942;52.462;10.846;2024-01-15T04:28:19;1.7;90
74484;SHT31;62942;52.462;10.846;2024-01-15T04:29:29;1.7;89.8
74484;SHT31;62942;52.462;10.846;2024-01-15T04:30:39;1.7;90.1
74484;SHT31;62942;52.462;10.846;2024-01-15T04:31:49;1.7;90.1
74484;SHT31;62942;52.462;10.846;2024-01-15T04:32:59;1.7;90.1
74484;SHT31;62942;52.462;10.846;2024-01-15T04:34:09;1.7;89.9
74484;SHT31;62942;52.462;10.846;2024-01-15T04:35:09;1.7;90
74484;SHT31;62942;52.462;10.846;2024-01-15T04:36:19;1.7;90.2
74484;SHT31;62942;52.462;10.846;2024-01-15T04:37:29;1.7;90.2
74484;SHT31;62942;52.462;10.846;2024-01-15T04:38:29;1.7;90.3
74484;SHT31;62942;52.462;10.846;2024-01-15T04:39:39;1.7;90.4
74484;SHT31;62942;52.462;10.846;2024-01-15T04:40:39;1.7;90.4
74484;SHT31;62942;52.462;10.846;2024-01-15T04:41:49;1.7;90.6
74484;SHT31;62942;52.462;10.846;2024-01-15T04:42:59;1.6;90.8
74484;SHT31;62942;52.462;10.846;2024-01-15T04:44:09;1.6;90.9
74484;SHT31;62942;52.462;10.846;2024-01-15T04:45:19;1.6;91.4
74484;SHT31;62942;52.462;10.846;2024-01-15T04:46:29;1.5;91.8
74484;SHT31;62942;52.462;10.846;2024-01-15T04:47:39;1.4;92.4
74484;SHT31;62942;52.462;10.846;2024-01-15T04:48:39;1.4;92.9
74484;SHT31;62942;52.462;10.846;2024-01-15T04:49:49;1.3;93.3
74484;SHT31;62942;52.462;10.846;2024-01-15T04:50:49;1.3;93.3
74484;SHT31;62942;52.462;10.846;2024-01-15T04:51:59;1.2;93.3
74484;SHT31;62942;52.462;10.846;2024-01-15T04:53:09;1.2;93.7
74484;SHT31;62942;52.462;10.846;2024-01-15T04:54:19;1.2;93.8
74484;SHT31;62942;52.462;10.846;2024-01-15T04:55:29;1.2;93.7
74484;SHT31;62942;52.462;10.846;2024-01-15T04:56:39;1.2;93.8
74484;SHT31;62942;52.462;10.846;2024-01-15T04:57:39;1.2;93.9
74484;SHT31;62942;52.462;10.846;2024-01-15T04:58:49;1.1;93.8
74484;SHT31;62942;52.462;10.846;2024-01-15T04:59:59;1.2;93.6
74484;SHT31;62942;52.462;10.846;2024-01-15T05:01:09;1.2;93.7
74484;SHT31;62942;52.462;10.846;2024-01-15T05:02:19;1.2;93.6
74484;SHT31;62942;52.462;10.846;2024-01-15T05:03:29;1.2;93.5
74484;SHT31;62942;52.462;10.846;2024-01-15T05:04:39;1.2;92.9
74484;SHT31;62942;52.462;10.846;2024-01-15T05:05:39;1.2;92.9
74484;SHT31;62942;52.462;10.846;2024-01-15T05:06:49;1.3;92.8
74484;SHT31;62942;52.462;10.846;2024-01-15T05:07:49;1.3;92.8
74484;SHT31;62942;52.462;10.846;2024-01-15T05:08:59;1.3;92.7
74484;SHT31;62942;52.462;10.846;2024-01-15T05:10:09;1.3;92.8
74484;SHT31;62942;52.462;10.846;2024-01-15T05:11:19;1.3;92.8
74484;SHT31;62942;52.462;10.846;2024-01-15T05:12:29;1.3;92.5
74484;SHT31;62942;52.462;10.846;2024-01-15T05:13:29;1.3;92.2
74484;SHT31;62942;52.462;10.846;2024-01-15T05:14:29;1.3;92
74484;SHT31;62942;52.462;10.846;2024-01-15T05:15:39;1.4;91.8
74484;SHT31;62942;52.462;10.846;2024-01-15T05:16:49;1.4;91.9
74484;SHT31;62942;52.462;10.846;2024-01-15T05:17:59;1.3;91.8
74484;SHT31;62942;52.462;10.846;2024-01-15T05:19:09;1.4;91.8
74484;SHT31;62942;52.462;10.846;2024-01-15T05:20:19;1.3;92
74484;SHT31;62942;52.462;10.846;2024-01-15T05:21:29;1.3;91.9
74484;SHT31;62942;52.462;10.846;2024-01-15T05:22:29;1.3;91.9
74484;SHT31;62942;52.462;10.846;2024-01-15T05:23:39;1.3;91.9
74484;SHT31;62942;52.462;10.846;2024-01-15T05:24:39;1.3;91.9
74484;SHT31;62942;52.462;10.846;2024-01-15T05:25:49;1.3;91.3
74484;SHT31;62942;52.462;10.846;2024-01-15T05:26:49;1.4;91.4
74484;SHT31;62942;52.462;10.846;2024-01-15T05:27:59;1.4;91.3
74484;SHT31;62942;52.462;10.846;2024-01-15T05:28:59;1.4;91.5
74484;SHT31;62942;52.462;10.846;2024-01-15T05:30:09;1.4;91.3
74484;SHT31;62942;52.462;10.846;2024-01-15T05:31:09;1.4;91.3
74484;SHT31;62942;52.462;10.846;2024-01-15T05:32:19;1.4;91.1
74484;SHT31;62942;52.462;10.846;2024-01-15T05:33:19;1.5;91.1
74484;SHT31;62942;52.462;10.846;2024-01-15T05:34:29;1.4;91.2
74484;SHT31;62942;52.462;10.846;2024-01-15T05:35:29;1.5;91
74484;SHT31;62942;52.462;10.846;2024-01-15T05:36:39;1.5;91.1
74484;SHT31;62942;52.462;10.846;2024-01-15T05:37:49;1.5;91
74484;SHT31;62942;52.462;10.846;2024-01-15T05:38:59;1.5;90.7
74484;SHT31;62942;52.462;10.846;2024-01-15T05:39:59;1.5;90.7
74484;SHT31;62942;52.462;10.846;2024-01-15T05:41:09;1.6;90.6
74484;SHT31;62942;52.462;10.846;2024-01-15T05:42:09;1.6;90.6
74484;SHT31;62942;52.462;10.846;2024-01-15T05:43:19;1.6;90.7
74484;SHT31;62942;52.462;10.846;2024-01-15T05:44:19;1.6;91
74484;SHT31;62942;52.462;10.846;2024-01-15T05:45:19;1.6;91.1
74484;SHT31;62942;52.462;10.846;2024-01-15T05:46:29;1.5;91.5
74484;SHT31;62942;52.462;10.846;2024-01-15T05:47:39;1.5;91.7
74484;SHT31;62942;52.462;10.846;2024-01-15T05:48:49;1.4;92.5
74484;SHT31;62942;52.462;10.846;2024-01-15T05:50:00;1.4;92.7
74484;SHT31;62942;52.462;10.846;2024-01-15T05:51:09;1.3;93.3
74484;SHT31;62942;52.462;10.846;2024-01-15T05:52:19;1.2;93.5
74484;SHT31;62942;52.462;10.846;2024-01-15T05:53:19;1.2;93.9
74484;SHT31;62942;52.462;10.846;2024-01-15T05:54:19;1.1;94.4
74484;SHT31;62942;52.462;10.846;2024-01-15T05:55:19;1.1;94.6
74484;SHT31;62942;52.462;10.846;2024-01-15T05:56:19;1.1;94.7
74484;SHT31;62942;52.462;10.846;2024-01-15T05:57:29;1.1;94.9
74484;SHT31;62942;52.462;10.846;2024-01-15T05:58:39;1;94.9
74484;SHT31;62942;52.462;10.846;2024-01-15T05:59:49;1;95
74484;SHT31;62942;52.462;10.846;2024-01-15T06:00:59;0.9;95.1
74484;SHT31;62942;52.462;10.846;2024-01-15T06:01:59;0.9;95.4
74484;SHT31;62942;52.462;10.846;2024-01-15T06:03:09;0.9;95.4
74484;SHT31;62942;52.462;10.846;2024-01-15T06:04:09;1;95.4
74484;SHT31;62942;52.462;10.846;2024-01-15T06:05:19;1;95.4
74484;SHT31;62942;52.462;10.846;2024-01-15T06:06:29;1;95.3
74484;SHT31;62942;52.462;10.846;2024-01-15T06:07:39;1;95.3
74484;SHT31;62942;52.462;10.846;2024-01-15T06:08:39;1;95.5
74484;SHT31;62942;52.462;10.846;2024-01-15T06:09:49;1;95.5
74484;SHT31;62942;52.462;10.846;2024-01-15T06:10:49;1;95.6
74484;SHT31;62942;52.462;10.846;2024-01-15T06:11:59;1;95.6
74484;SHT31;62942;52.462;10.846;2024-01-15T06:12:59;1;95.5
74484;SHT31;62942;52.462;10.846;2024-01-15T06:14:09;1;95.5
74484;SHT31;62942;52.462;10.846;2024-01-15T06:15:09;1;95.5
74484;SHT31;62942;52.462;10.846;2024-01-15T06:16:19;1;95.5
74484;SHT31;62942;52.462;10.846;2024-01-15T06:17:19;1;95.5
74484;SHT31;62942;52.462;10.846;2024-01-15T06:18:29;1;95.4
74484;SHT31;62942;52.462;10.846;2024-01-15T06:19:29;1;95.3
74484;SHT31;62942;52.462;10.846;2024-01-15T06:20:39;1;95.2
74484;SHT31;62942;52.462;10.846;2024-01-15T06:21:49;1;95
74484;SHT31;62942;52.462;10.846;2024-01-15T06:22:59;1.1;94.8
74484;SHT31;62942;52.462;10.846;2024-01-15T06:24:09;1.1;94.5
74484;SHT31;62942;52.462;10.846;2024-01-15T06:25:09;1.1;94.4
74484;SHT31;62942;52.462;10.846;2024-01-15T06:26:19;1.2;94.3
74484;SHT31;62942;52.462;10.846;2024-01-15T06:27:29;1.2;94.3
74484;SHT31;62942;52.462;10.846;2024-01-15T06:28:29;1.2;94.3
74484;SHT31;62942;52.462;10.846;2024-01-15T06:29:39;1.2;94.3
74484;SHT31;62942;52.462;10.846;2024-01-15T06:30:39;1.2;94.3
74484;SHT31;62942;52.462;10.846;2024-01-15T06:31:49;1.2;94.2
74484;SHT31;62942;52.462;10.846;2024-01-15T06:32:49;1.2;94.1
74484;SHT31;62942;52.462;10.846;2024-01-15T06:33:49;1.2;94.1
74484;SHT31;62942;52.462;10.846;2024-01-15T06:34:59;1.2;94.2
74484;SHT31;62942;52.462;10.846;2024-01-15T06:36:09;1.2;94.1
74484;SHT31;62942;52.462;10.846;2024-01-15T06:37:19;1.2;94.1
74484;SHT31;62942;52.462;10.846;2024-01-15T06:38:19;1.2;94.1
74484;SHT31;62942;52.462;10.846;2024-01-15T06:39:19;1.2;94
74484;SHT31;62942;52.462;10.846;2024-01-15T06:40:29;1.3;94.1
74484;SHT31;62942;52.462;10.846;2024-01-15T06:41:29;1.2;94.1
74484;SHT31;62942;52.462;10.846;2024-01-15T06:42:39;1.3;93.9
74484;SHT31;62942;52.462;10.846;2024-01-15T06:43:49;1.3;93.8
74484;SHT31;62942;52.462;10.846;2024-01-15T06:44:49;1.3;93.8
74484;SHT31;62942;52.462;10.846;2024-01-15T06:45:59;1.3;93.9
74484;SHT31;62942;52.462;10.846;2024-01-15T06:46:59;1.3;93.8
74484;SHT31;62942;52.462;10.846;2024-01-15T06:48:09;1.3;93.8
74484;SHT31;62942;52.462;10.846;2024-01-15T06:49:09;1.3;93.9
74484;SHT31;62942;52.462;10.846;2024-01-15T06:50:19;1.3;94
74484;SHT31;62942;52.462;10.846;2024-01-15T06:51:19;1.3;94
74484;SHT31;62942;52.462;10.846;2024-01-15T06:52:19;1.3;94
74484;SHT31;62942;52.462;10.846;2024-01-15T06:53:29;1.3;93.7
74484;SHT31;62942;52.462;10.846;2024-01-15T06:54:39;1.3;93.8
74484;SHT31;62942;52.462;10.846;2024-01-15T06:55:49;1.3;93.9
74484;SHT31;62942;52.462;10.846;2024-01-15T06:56:59;1.3;93.9
74484;SHT31;62942;52.462;10.846;2024-01-15T06:58:09;1.3;93.9
74484;SHT31;62942;52.462;10.846;2024-01-15T06:59:19;1.3;93.9
74484;SHT31;62942;52.462;10.846;2024-01-15T07:00:29;1.3;93.9
74484;SHT31;62942;52.462;10.846;2024-01-15T07:01:39;1.3;94
74484;SHT31;62942;52.462;10.846;2024-01-15T07:02:49;1.3;94
74484;SHT31;62942;52.462;10.846;2024-01-15T07:03:49;1.3;94.1
74484;SHT31;62942;52.462;10.846;2024-01-15T07:04:59;1.3;94.1
74484;SHT31;62942;52.462;10.846;2024-01-15T07:06:09;1.3;94.2
74484;SHT31;62942;52.462;10.846;2024-01-15T07:07:09;1.2;94.2
74484;SHT31;62942;52.462;10.846;2024-01-15T07:08:09;1.3;94.3
74484;SHT31;62942;52.462;10.846;2024-01-15T07:09:19;1.2;94.3
74484;SHT31;62942;52.462;10.846;2024-01-15T07:10:29;1.2;94.4
74484;SHT31;62942;52.462;10.846;2024-01-15T07:11:43;1.2;94.5
74484;SHT31;62942;52.462;10.846;2024-01-15T07:12:49;1.2;94.6
74484;SHT31;62942;52.462;10.846;2024-01-15T07:13:49;1.2;94.6
74484;SHT31;62942;52.462;10.846;2024-01-15T07:14:49;1.2;94.6
74484;SHT31;62942;52.462;10.846;2024-01-15T07:15:49;1.2;94.7
74484;SHT31;62942;52.462;10.846;2024-01-15T07:16:59;1.2;94.7
74484;SHT31;62942;52.462;10.846;2024-01-15T07:17:59;1.2;94.6